sensor_id;sensor_type;location;lat;lon;timestamp;pressure;altitude;pressure_sealevel;temperature;humidity
4972;BME280;2501;51.214;6.768;2023-02-14T00:01:40;103193.13;;;6.57;82.79
4972;BME280;2501;51.214;6.768;2023-02-14T00:04:12;103196.44;;;6.54;82.85
4972;BME280;2501;51.214;6.768;2023-02-14T00:06:41;103203.69;;;6.60;82.72
4972;BME280;2501;51.214;6.768;2023-02-14T00:09:11;103204.25;;;6.54;82.86
4972;BME280;2501;51.214;6.768;2023-02-14T00:11:40;103200.31;;;6.33;83.34
4972;BME280;2501;51.214;6.768;2023-02-14T00:14:09;103202.16;;;6.21;83.81
4972;BME280;2501;51.214;6.768;2023-02-14T00:16:50;103196.00;;;6.34;83.92
4972;BME280;2501;51.214;6.768;2023-02-14T00:19:22;103190.00;;;6.35;83.59
4972;BME280;2501;51.214;6.768;2023-02-14T00:21:50;103193.94;;;6.43;82.96
4972;BME280;2501;51.214;6.768;2023-02-14T00:24:20;103188.63;;;6.41;82.81
4972;BME280;2501;51.214;6.768;2023-02-14T00:26:50;103185.06;;;6.39;82.92
4972;BME280;2501;51.214;6.768;2023-02-14T00:29:20;103187.69;;;6.39;82.79
4972;BME280;2501;51.214;6.768;2023-02-14T00:31:49;103186.69;;;6.37;82.68
4972;BME280;2501;51.214;6.768;2023-02-14T00:34:20;103188.56;;;6.40;82.52
4972;BME280;2501;51.214;6.768;2023-02-14T00:36:49;103195.19;;;6.35;82.61
4972;BME280;2501;51.214;6.768;2023-02-14T00:39:18;103183.88;;;6.34;82.80
4972;BME280;2501;51.214;6.768;2023-02-14T00:41:46;103190.69;;;6.32;82.76
4972;BME280;2501;51.214;6.768;2023-02-14T00:44:15;103191.59;;;6.33;82.83
4972;BME280;2501;51.214;6.768;2023-02-14T00:46:44;103186.00;;;6.26;82.88
4972;BME280;2501;51.214;6.768;2023-02-14T00:49:12;103190.84;;;6.20;82.94
4972;BME280;2501;51.214;6.768;2023-02-14T00:51:43;103188.50;;;6.25;83.24
4972;BME280;2501;51.214;6.768;2023-02-14T00:54:11;103186.78;;;6.25;83.10
4972;BME280;2501;51.214;6.768;2023-02-14T00:56:40;103183.03;;;6.20;83.17
4972;BME280;2501;51.214;6.768;2023-02-14T00:59:08;103188.75;;;6.15;83.25
4972;BME280;2501;51.214;6.768;2023-02-14T01:01:37;103191.06;;;6.10;83.42
4972;BME280;2501;51.214;6.768;2023-02-14T01:04:06;103193.41;;;6.06;83.49
4972;BME280;2501;51.214;6.768;2023-02-14T01:06:34;103188.78;;;6.02;83.69
4972;BME280;2501;51.214;6.768;2023-02-14T01:09:06;103196.88;;;6.06;83.65
4972;BME280;2501;51.214;6.768;2023-02-14T01:11:35;103201.91;;;6.03;83.74
4972;BME280;2501;51.214;6.768;2023-02-14T01:14:03;103195.50;;;5.98;83.86
4972;BME280;2501;51.214;6.768;2023-02-14T01:16:32;103200.22;;;5.90;84.16
4972;BME280;2501;51.214;6.768;2023-02-14T01:19:01;103200.63;;;5.83;84.54
4972;BME280;2501;51.214;6.768;2023-02-14T01:21:30;103202.13;;;5.80;84.97
4972;BME280;2501;51.214;6.768;2023-02-14T01:24:02;103201.50;;;5.84;85.34
4972;BME280;2501;51.214;6.768;2023-02-14T01:26:34;103192.09;;;5.86;85.31
4972;BME280;2501;51.214;6.768;2023-02-14T01:29:04;103195.69;;;5.75;85.11
4972;BME280;2501;51.214;6.768;2023-02-14T01:31:33;103190.38;;;5.73;85.34
4972;BME280;2501;51.214;6.768;2023-02-14T01:34:02;103193.09;;;5.75;85.16
4972;BME280;2501;51.214;6.768;2023-02-14T01:36:34;103192.19;;;5.74;85.34
4972;BME280;2501;51.214;6.768;2023-02-14T01:39:06;103188.88;;;5.77;85.40
4972;BME280;2501;51.214;6.768;2023-02-14T01:41:39;103189.88;;;5.79;85.19
4972;BME280;2501;51.214;6.768;2023-02-14T01:47:07;103182.47;;;5.72;85.68
4972;BME280;2501;51.214;6.768;2023-02-14T01:49:39;103186.63;;;5.68;85.43
4972;BME280;2501;51.214;6.768;2023-02-14T01:52:13;103177.00;;;5.67;85.50
4972;BME280;2501;51.214;6.768;2023-02-14T01:54:46;103178.59;;;5.65;85.72
4972;BME280;2501;51.214;6.768;2023-02-14T01:57:20;103174.69;;;5.58;85.84
4972;BME280;2501;51.214;6.768;2023-02-14T01:59:52;103174.28;;;5.66;85.75
4972;BME280;2501;51.214;6.768;2023-02-14T02:02:21;103182.91;;;5.65;85.84
4972;BME280;2501;51.214;6.768;2023-02-14T02:04:52;103175.88;;;5.64;85.81
4972;BME280;2501;51.214;6.768;2023-02-14T02:07:25;103173.78;;;5.58;85.95
4972;BME280;2501;51.214;6.768;2023-02-14T02:09:57;103174.41;;;5.54;85.89
4972;BME280;2501;51.214;6.768;2023-02-14T02:12:29;103172.78;;;5.56;86.27
4972;BME280;2501;51.214;6.768;2023-02-14T02:15:00;103169.28;;;5.55;86.10
4972;BME280;2501;51.214;6.768;2023-02-14T02:17:37;103166.41;;;5.51;86.24
4972;BME280;2501;51.214;6.768;2023-02-14T02:26:37;103160.22;;;5.36;87.08
4972;BME280;2501;51.214;6.768;2023-02-14T02:32:44;103163.59;;;5.35;87.16
4972;BME280;2501;51.214;6.768;2023-02-14T02:35:32;103163.59;;;5.35;87.20
4972;BME280;2501;51.214;6.768;2023-02-14T02:38:22;103157.88;;;5.27;87.51
4972;BME280;2501;51.214;6.768;2023-02-14T02:41:01;103155.59;;;5.32;87.74
4972;BME280;2501;51.214;6.768;2023-02-14T02:43:40;103155.50;;;5.30;87.74
4972;BME280;2501;51.214;6.768;2023-02-14T02:46:15;103149.38;;;5.30;87.93
4972;BME280;2501;51.214;6.768;2023-02-14T02:49:07;103152.78;;;5.29;87.85
4972;BME280;2501;51.214;6.768;2023-02-14T02:52:06;103149.28;;;5.28;87.84
4972;BME280;2501;51.214;6.768;2023-02-14T02:54:52;103152.56;;;5.25;87.93
4972;BME280;2501;51.214;6.768;2023-02-14T02:57:27;103144.66;;;5.24;88.10
4972;BME280;2501;51.214;6.768;2023-02-14T02:59:58;103147.06;;;5.21;88.25
4972;BME280;2501;51.214;6.768;2023-02-14T03:02:30;103152.19;;;5.19;88.29
4972;BME280;2501;51.214;6.768;2023-02-14T03:05:20;103143.88;;;5.12;88.41
4972;BME280;2501;51.214;6.768;2023-02-14T03:07:49;103145.19;;;5.18;88.49
4972;BME280;2501;51.214;6.768;2023-02-14T03:10:20;103151.28;;;5.19;88.71
4972;BME280;2501;51.214;6.768;2023-02-14T03:15:51;103154.38;;;5.13;88.79
4972;BME280;2501;51.214;6.768;2023-02-14T03:18:36;103146.69;;;5.15;88.69
4972;BME280;2501;51.214;6.768;2023-02-14T03:21:16;103147.06;;;5.21;88.73
4972;BME280;2501;51.214;6.768;2023-02-14T03:23:53;103154.19;;;5.10;88.82
4972;BME280;2501;51.214;6.768;2023-02-14T03:26:28;103152.47;;;5.11;88.73
4972;BME280;2501;51.214;6.768;2023-02-14T03:29:07;103150.25;;;5.04;88.72
4972;BME280;2501;51.214;6.768;2023-02-14T03:31:45;103158.06;;;5.04;89.01
4972;BME280;2501;51.214;6.768;2023-02-14T03:34:26;103162.06;;;4.99;88.95
4972;BME280;2501;51.214;6.768;2023-02-14T03:37:00;103163.66;;;4.97;89.25
4972;BME280;2501;51.214;6.768;2023-02-14T03:39:38;103156.44;;;4.93;89.23
4972;BME280;2501;51.214;6.768;2023-02-14T03:42:11;103161.16;;;4.98;89.56
4972;BME280;2501;51.214;6.768;2023-02-14T03:44:42;103165.84;;;4.90;89.46
4972;BME280;2501;51.214;6.768;2023-02-14T03:47:16;103163.03;;;4.87;89.52
4972;BME280;2501;51.214;6.768;2023-02-14T03:49:49;103157.66;;;4.84;89.81
4972;BME280;2501;51.214;6.768;2023-02-14T03:52:18;103163.81;;;4.86;89.76
4972;BME280;2501;51.214;6.768;2023-02-14T03:54:52;103164.44;;;4.82;89.99
4972;BME280;2501;51.214;6.768;2023-02-14T03:57:24;103159.94;;;4.80;90.03
4972;BME280;2501;51.214;6.768;2023-02-14T03:59:55;103162.31;;;4.77;90.14
4972;BME280;2501;51.214;6.768;2023-02-14T04:02:28;103161.84;;;4.82;90.24
4972;BME280;2501;51.214;6.768;2023-02-14T04:04:59;103159.03;;;4.79;90.16
4972;BME280;2501;51.214;6.768;2023-02-14T04:07:30;103162.78;;;4.71;90.43
4972;BME280;2501;51.214;6.768;2023-02-14T04:10:01;103155.22;;;4.74;90.53
4972;BME280;2501;51.214;6.768;2023-02-14T04:12:29;103159.41;;;4.72;90.51
4972;BME280;2501;51.214;6.768;2023-02-14T04:14:58;103165.50;;;4.73;90.98
4972;BME280;2501;51.214;6.768;2023-02-14T04:17:26;103167.59;;;4.65;90.99
4972;BME280;2501;51.214;6.768;2023-02-14T04:20:08;103168.97;;;4.60;91.05
4972;BME280;2501;51.214;6.768;2023-02-14T04:22:36;103159.47;;;4.61;91.59
4972;BME280;2501;51.214;6.768;2023-02-14T04:25:07;103160.97;;;4.57;91.35
4972;BME280;2501;51.214;6.768;2023-02-14T04:27:35;103160.16;;;4.58;91.21
4972;BME280;2501;51.214;6.768;2023-02-14T04:30:06;103156.25;;;4.51;91.54
4972;BME280;2501;51.214;6.768;2023-02-14T04:32:34;103163.13;;;4.51;91.79
4972;BME280;2501;51.214;6.768;2023-02-14T04:35:03;103151.84;;;4.50;91.93
4972;BME280;2501;51.214;6.768;2023-02-14T04:37:32;103157.13;;;4.52;92.14
4972;BME280;2501;51.214;6.768;2023-02-14T04:40:01;103155.16;;;4.48;92.04
4972;BME280;2501;51.214;6.768;2023-02-14T04:42:32;103148.72;;;4.43;92.52
4972;BME280;2501;51.214;6.768;2023-02-14T04:45:00;103151.91;;;4.39;92.79
4972;BME280;2501;51.214;6.768;2023-02-14T04:47:29;103141.63;;;4.40;92.79
4972;BME280;2501;51.214;6.768;2023-02-14T04:49:57;103140.94;;;4.43;92.98
4972;BME280;2501;51.214;6.768;2023-02-14T04:52:26;103143.31;;;4.40;93.18
4972;BME280;2501;51.214;6.768;2023-02-14T04:54:54;103132.81;;;4.38;92.85
4972;BME280;2501;51.214;6.768;2023-02-14T04:57:23;103138.34;;;4.43;93.05
4972;BME280;2501;51.214;6.768;2023-02-14T04:59:54;103132.72;;;4.37;93.12
4972;BME280;2501;51.214;6.768;2023-02-14T05:02:22;103135.75;;;4.43;93.36
4972;BME280;2501;51.214;6.768;2023-02-14T05:04:50;103136.44;;;4.40;93.14
4972;BME280;2501;51.214;6.768;2023-02-14T05:07:19;103130.00;;;4.35;93.24
4972;BME280;2501;51.214;6.768;2023-02-14T05:09:47;103136.44;;;4.40;93.66
4972;BME280;2501;51.214;6.768;2023-02-14T05:12:16;103131.81;;;4.36;93.50
4972;BME280;2501;51.214;6.768;2023-02-14T05:14:44;103129.72;;;4.31;93.83
4972;BME280;2501;51.214;6.768;2023-02-14T05:17:15;103126.91;;;4.28;93.74
4972;BME280;2501;51.214;6.768;2023-02-14T05:19:44;103122.06;;;4.20;93.98
4972;BME280;2501;51.214;6.768;2023-02-14T05:22:12;103118.44;;;4.18;94.19
4972;BME280;2501;51.214;6.768;2023-02-14T05:24:40;103122.75;;;4.18;94.52
4972;BME280;2501;51.214;6.768;2023-02-14T05:27:09;103120.63;;;4.12;94.54
4972;BME280;2501;51.214;6.768;2023-02-14T05:29:38;103116.25;;;4.11;94.80
4972;BME280;2501;51.214;6.768;2023-02-14T05:32:06;103116.34;;;4.13;94.79
4972;BME280;2501;51.214;6.768;2023-02-14T05:34:38;103112.56;;;4.21;94.73
4972;BME280;2501;51.214;6.768;2023-02-14T05:37:06;103109.28;;;4.24;94.80
4972;BME280;2501;51.214;6.768;2023-02-14T05:39:34;103113.75;;;4.13;94.69
4972;BME280;2501;51.214;6.768;2023-02-14T05:42:03;103115.44;;;4.12;94.77
4972;BME280;2501;51.214;6.768;2023-02-14T05:44:31;103110.47;;;4.15;94.97
4972;BME280;2501;51.214;6.768;2023-02-14T05:47:00;103110.25;;;4.12;94.92
4972;BME280;2501;51.214;6.768;2023-02-14T05:49:28;103111.63;;;4.07;94.91
4972;BME280;2501;51.214;6.768;2023-02-14T05:51:59;103112.41;;;4.06;95.36
4972;BME280;2501;51.214;6.768;2023-02-14T05:54:27;103111.63;;;4.07;95.12
4972;BME280;2501;51.214;6.768;2023-02-14T05:56:56;103117.50;;;4.05;95.41
4972;BME280;2501;51.214;6.768;2023-02-14T05:59:24;103112.75;;;4.11;95.45
4972;BME280;2501;51.214;6.768;2023-02-14T06:01:52;103113.09;;;4.04;95.54
4972;BME280;2501;51.214;6.768;2023-02-14T06:04:21;103114.38;;;3.97;95.34
4972;BME280;2501;51.214;6.768;2023-02-14T06:06:49;103111.19;;;4.01;95.46
4972;BME280;2501;51.214;6.768;2023-02-14T06:09:20;103112.75;;;4.11;95.66
4972;BME280;2501;51.214;6.768;2023-02-14T06:11:49;103115.34;;;3.99;95.65
4972;BME280;2501;51.214;6.768;2023-02-14T06:14:18;103120.16;;;3.93;95.66
4972;BME280;2501;51.214;6.768;2023-02-14T06:16:46;103116.44;;;3.90;95.89
4972;BME280;2501;51.214;6.768;2023-02-14T06:19:15;103118.66;;;3.97;96.08
4972;BME280;2501;51.214;6.768;2023-02-14T06:21:43;103116.66;;;3.93;96.06
4972;BME280;2501;51.214;6.768;2023-02-14T06:24:12;103120.81;;;3.91;96.45
4972;BME280;2501;51.214;6.768;2023-02-14T06:26:43;103120.59;;;3.88;96.47
4972;BME280;2501;51.214;6.768;2023-02-14T06:29:11;103126.47;;;3.97;96.47
4972;BME280;2501;51.214;6.768;2023-02-14T06:31:40;103126.47;;;3.97;96.14
4972;BME280;2501;51.214;6.768;2023-02-14T06:34:08;103124.22;;;3.90;96.37
4972;BME280;2501;51.214;6.768;2023-02-14T06:36:37;103128.84;;;3.94;96.24
4972;BME280;2501;51.214;6.768;2023-02-14T06:39:05;103141.53;;;4.02;96.20
4972;BME280;2501;51.214;6.768;2023-02-14T06:41:34;103134.56;;;4.01;95.95
4972;BME280;2501;51.214;6.768;2023-02-14T06:44:05;103140.28;;;4.09;95.64
4972;BME280;2501;51.214;6.768;2023-02-14T06:46:34;103147.53;;;4.01;95.66
4972;BME280;2501;51.214;6.768;2023-02-14T06:49:03;103139.34;;;3.95;95.69
4972;BME280;2501;51.214;6.768;2023-02-14T06:51:31;103143.84;;;3.98;95.67
4972;BME280;2501;51.214;6.768;2023-02-14T06:54:02;103141.59;;;3.91;95.76
4972;BME280;2501;51.214;6.768;2023-02-14T06:56:31;103140.59;;;3.89;96.02
4972;BME280;2501;51.214;6.768;2023-02-14T06:58:59;103144.31;;;3.92;95.86
4972;BME280;2501;51.214;6.768;2023-02-14T07:01:30;103141.53;;;4.02;95.95
4972;BME280;2501;51.214;6.768;2023-02-14T07:03:59;103136.72;;;3.95;95.60
4972;BME280;2501;51.214;6.768;2023-02-14T07:06:27;103139.75;;;4.01;95.58
4972;BME280;2501;51.214;6.768;2023-02-14T07:08:55;103136.13;;;3.99;95.57
4972;BME280;2501;51.214;6.768;2023-02-14T07:11:24;103144.31;;;4.17;95.31
4972;BME280;2501;51.214;6.768;2023-02-14T07:13:53;103138.38;;;4.06;95.26
4972;BME280;2501;51.214;6.768;2023-02-14T07:16:21;103136.97;;;3.98;95.03
4972;BME280;2501;51.214;6.768;2023-02-14T07:18:52;103143.91;;;3.99;95.05
4972;BME280;2501;51.214;6.768;2023-02-14T07:21:20;103146.75;;;4.02;95.07
4972;BME280;2501;51.214;6.768;2023-02-14T07:23:49;103139.56;;;3.98;94.95
4972;BME280;2501;51.214;6.768;2023-02-14T07:26:17;103137.59;;;4.07;95.25
4972;BME280;2501;51.214;6.768;2023-02-14T07:28:47;103134.09;;;4.07;95.22
4972;BME280;2501;51.214;6.768;2023-02-14T07:31:16;103132.63;;;4.10;94.92
4972;BME280;2501;51.214;6.768;2023-02-14T07:33:48;103137.00;;;4.11;95.09
4972;BME280;2501;51.214;6.768;2023-02-14T07:36:19;103138.59;;;4.09;94.86
4972;BME280;2501;51.214;6.768;2023-02-14T07:38:48;103136.13;;;4.11;94.75
4972;BME280;2501;51.214;6.768;2023-02-14T07:41:16;103133.50;;;4.11;94.58
4972;BME280;2501;51.214;6.768;2023-02-14T07:43:45;103139.22;;;4.18;94.49
4972;BME280;2501;51.214;6.768;2023-02-14T07:46:13;103129.44;;;4.14;94.47
4972;BME280;2501;51.214;6.768;2023-02-14T07:48:42;103140.00;;;4.17;94.12
4972;BME280;2501;51.214;6.768;2023-02-14T07:51:11;103139.09;;;4.29;93.91
4972;BME280;2501;51.214;6.768;2023-02-14T07:53:42;103140.28;;;4.34;93.29
4972;BME280;2501;51.214;6.768;2023-02-14T07:56:10;103134.41;;;4.36;92.55
4972;BME280;2501;51.214;6.768;2023-02-14T07:58:39;103135.41;;;4.38;92.21
4972;BME280;2501;51.214;6.768;2023-02-14T08:01:07;103143.88;;;4.36;92.29
4972;BME280;2501;51.214;6.768;2023-02-14T08:03:36;103135.06;;;4.45;92.22
4972;BME280;2501;51.214;6.768;2023-02-14T08:06:04;103137.53;;;4.44;91.78
4972;BME280;2501;51.214;6.768;2023-02-14T08:08:33;103135.84;;;4.44;91.47
4972;BME280;2501;51.214;6.768;2023-02-14T08:11:04;103144.25;;;4.53;91.38
4972;BME280;2501;51.214;6.768;2023-02-14T08:13:33;103138.38;;;4.56;91.03
4972;BME280;2501;51.214;6.768;2023-02-14T08:16:01;103130.31;;;4.65;90.79
4972;BME280;2501;51.214;6.768;2023-02-14T08:18:36;103131.31;;;4.67;90.43
4972;BME280;2501;51.214;6.768;2023-02-14T08:21:06;103135.31;;;4.75;89.96
4972;BME280;2501;51.214;6.768;2023-02-14T08:23:36;103128.72;;;4.80;89.63
4972;BME280;2501;51.214;6.768;2023-02-14T08:26:07;103130.53;;;4.81;89.22
4972;BME280;2501;51.214;6.768;2023-02-14T08:28:36;103133.63;;;4.88;88.88
4972;BME280;2501;51.214;6.768;2023-02-14T08:31:04;103136.75;;;4.96;88.25
4972;BME280;2501;51.214;6.768;2023-02-14T08:33:33;103131.78;;;5.12;87.61
4972;BME280;2501;51.214;6.768;2023-02-14T08:36:02;103127.84;;;5.06;87.20
4972;BME280;2501;51.214;6.768;2023-02-14T08:38:31;103135.28;;;5.13;87.05
4972;BME280;2501;51.214;6.768;2023-02-14T08:40:59;103136.47;;;5.18;86.98
4972;BME280;2501;51.214;6.768;2023-02-14T08:43:31;103131.06;;;5.28;86.52
4972;BME280;2501;51.214;6.768;2023-02-14T08:45:59;103134.78;;;5.32;86.16
4972;BME280;2501;51.214;6.768;2023-02-14T08:48:28;103133.44;;;5.38;85.64
4972;BME280;2501;51.214;6.768;2023-02-14T08:50:57;103128.53;;;5.56;85.21
4972;BME280;2501;51.214;6.768;2023-02-14T08:53:25;103132.41;;;5.76;84.23
4972;BME280;2501;51.214;6.768;2023-02-14T08:55:54;103130.88;;;6.06;82.91
4972;BME280;2501;51.214;6.768;2023-02-14T08:58:22;103131.81;;;6.21;81.86
4972;BME280;2501;51.214;6.768;2023-02-14T09:00:53;103128.59;;;5.84;81.95
4972;BME280;2501;51.214;6.768;2023-02-14T09:03:22;103136.91;;;5.78;82.81
4972;BME280;2501;51.214;6.768;2023-02-14T09:05:50;103136.81;;;5.90;83.27
4972;BME280;2501;51.214;6.768;2023-02-14T09:08:19;103130.13;;;6.08;82.37
4972;BME280;2501;51.214;6.768;2023-02-14T09:10:47;103129.66;;;6.28;81.33
4972;BME280;2501;51.214;6.768;2023-02-14T09:13:16;103125.06;;;6.24;81.01
4972;BME280;2501;51.214;6.768;2023-02-14T09:15:45;103121.91;;;6.15;81.15
4972;BME280;2501;51.214;6.768;2023-02-14T09:18:16;103122.31;;;6.08;81.52
4972;BME280;2501;51.214;6.768;2023-02-14T09:20:44;103120.19;;;6.16;81.63
4972;BME280;2501;51.214;6.768;2023-02-14T09:23:13;103107.38;;;6.34;81.43
4972;BME280;2501;51.214;6.768;2023-02-14T09:25:41;103112.31;;;6.29;81.48
4972;BME280;2501;51.214;6.768;2023-02-14T09:28:10;103111.22;;;6.25;81.21
4972;BME280;2501;51.214;6.768;2023-02-14T09:30:39;103107.91;;;6.28;81.01
4972;BME280;2501;51.214;6.768;2023-02-14T09:33:07;103100.84;;;6.40;80.90
4972;BME280;2501;51.214;6.768;2023-02-14T09:35:39;103093.84;;;6.54;80.49
4972;BME280;2501;51.214;6.768;2023-02-14T09:38:09;103104.81;;;6.63;80.28
4972;BME280;2501;51.214;6.768;2023-02-14T09:40:38;103106.25;;;6.58;79.79
4972;BME280;2501;51.214;6.768;2023-02-14T09:43:10;103098.25;;;6.70;79.87
4972;BME280;2501;51.214;6.768;2023-02-14T09:45:46;103095.91;;;7.04;78.88
4972;BME280;2501;51.214;6.768;2023-02-14T09:48:23;103091.75;;;7.07;78.17
4972;BME280;2501;51.214;6.768;2023-02-14T09:50:59;103096.91;;;7.37;77.57
4972;BME280;2501;51.214;6.768;2023-02-14T09:53:32;103087.53;;;7.09;77.38
4972;BME280;2501;51.214;6.768;2023-02-14T09:56:06;103094.16;;;7.19;77.08
4972;BME280;2501;51.214;6.768;2023-02-14T09:58:41;103095.50;;;7.27;77.21
4972;BME280;2501;51.214;6.768;2023-02-14T10:01:17;103091.69;;;7.37;76.54
4972;BME280;2501;51.214;6.768;2023-02-14T10:04:04;103090.69;;;7.34;76.51
4972;BME280;2501;51.214;6.768;2023-02-14T10:06:53;103092.16;;;7.29;76.57
4972;BME280;2501;51.214;6.768;2023-02-14T10:09:42;103081.69;;;7.29;76.50
4972;BME280;2501;51.214;6.768;2023-02-14T10:12:18;103086.91;;;7.44;76.21
4972;BME280;2501;51.214;6.768;2023-02-14T10:14:48;103089.19;;;7.54;75.89
4972;BME280;2501;51.214;6.768;2023-02-14T10:17:21;103096.44;;;7.75;75.44
4972;BME280;2501;51.214;6.768;2023-02-14T10:19:55;103085.34;;;7.79;75.12
4972;BME280;2501;51.214;6.768;2023-02-14T10:22:36;103088.97;;;7.66;74.96
4972;BME280;2501;51.214;6.768;2023-02-14T10:25:13;103088.94;;;7.50;75.35
4972;BME280;2501;51.214;6.768;2023-02-14T10:27:46;103086.88;;;7.75;75.35
4972;BME280;2501;51.214;6.768;2023-02-14T10:30:17;103090.97;;;7.86;74.74
4972;BME280;2501;51.214;6.768;2023-02-14T10:32:48;103085.44;;;7.96;74.53
4972;BME280;2501;51.214;6.768;2023-02-14T10:35:29;103082.56;;;8.08;73.79
4972;BME280;2501;51.214;6.768;2023-02-14T10:38:08;103083.78;;;8.31;73.49
4972;BME280;2501;51.214;6.768;2023-02-14T10:40:56;103077.63;;;8.14;72.68
4972;BME280;2501;51.214;6.768;2023-02-14T10:43:32;103069.66;;;8.11;72.80
4972;BME280;2501;51.214;6.768;2023-02-14T10:46:08;103068.41;;;8.37;72.22
4972;BME280;2501;51.214;6.768;2023-02-14T10:48:48;103058.28;;;8.43;71.77
4972;BME280;2501;51.214;6.768;2023-02-14T10:51:23;103052.41;;;8.47;72.19
4972;BME280;2501;51.214;6.768;2023-02-14T10:54:10;103053.53;;;8.70;71.81
4972;BME280;2501;51.214;6.768;2023-02-14T10:56:46;103050.91;;;8.70;70.68
4972;BME280;2501;51.214;6.768;2023-02-14T10:59:21;103050.25;;;8.74;70.42
4972;BME280;2501;51.214;6.768;2023-02-14T11:01:52;103045.94;;;8.92;69.89
4972;BME280;2501;51.214;6.768;2023-02-14T11:04:23;103042.03;;;8.84;69.41
4972;BME280;2501;51.214;6.768;2023-02-14T11:06:52;103037.84;;;8.88;69.56
4972;BME280;2501;51.214;6.768;2023-02-14T11:09:23;103040.78;;;8.76;69.51
4972;BME280;2501;51.214;6.768;2023-02-14T11:11:53;103038.91;;;8.91;69.69
4972;BME280;2501;51.214;6.768;2023-02-14T11:14:25;103032.78;;;8.91;69.35
4972;BME280;2501;51.214;6.768;2023-02-14T11:16:55;103028.81;;;9.17;68.65
4972;BME280;2501;51.214;6.768;2023-02-14T11:19:26;103032.94;;;8.94;68.86
4972;BME280;2501;51.214;6.768;2023-02-14T11:21:56;103032.69;;;9.07;68.54
4972;BME280;2501;51.214;6.768;2023-02-14T11:24:31;103033.41;;;9.22;68.13
4972;BME280;2501;51.214;6.768;2023-02-14T11:27:03;103026.22;;;9.36;67.35
4972;BME280;2501;51.214;6.768;2023-02-14T11:29:35;103015.88;;;9.39;66.87
4972;BME280;2501;51.214;6.768;2023-02-14T11:32:12;103022.19;;;9.25;67.23
4972;BME280;2501;51.214;6.768;2023-02-14T11:34:46;103013.91;;;9.53;66.71
4972;BME280;2501;51.214;6.768;2023-02-14T11:37:27;103013.84;;;9.90;65.60
4972;BME280;2501;51.214;6.768;2023-02-14T11:40:01;102998.53;;;9.60;65.44
4972;BME280;2501;51.214;6.768;2023-02-14T11:42:41;103003.00;;;9.43;66.10
4972;BME280;2501;51.214;6.768;2023-02-14T11:45:26;103002.03;;;9.41;66.19
4972;BME280;2501;51.214;6.768;2023-02-14T11:48:15;103001.44;;;9.47;65.94
4972;BME280;2501;51.214;6.768;2023-02-14T11:50:54;102989.56;;;9.74;65.58
4972;BME280;2501;51.214;6.768;2023-02-14T11:53:24;102993.44;;;9.83;65.21
4972;BME280;2501;51.214;6.768;2023-02-14T11:55:57;102980.13;;;9.97;64.86
4972;BME280;2501;51.214;6.768;2023-02-14T11:58:31;102978.88;;;9.70;65.27
4972;BME280;2501;51.214;6.768;2023-02-14T12:01:01;102981.72;;;9.74;65.63
4972;BME280;2501;51.214;6.768;2023-02-14T12:03:37;102977.22;;;9.91;65.17
4972;BME280;2501;51.214;6.768;2023-02-14T12:06:10;102968.97;;;9.82;64.86
4972;BME280;2501;51.214;6.768;2023-02-14T12:08:39;102973.09;;;9.77;64.80
4972;BME280;2501;51.214;6.768;2023-02-14T12:11:21;102973.16;;;9.78;65.16
4972;BME280;2501;51.214;6.768;2023-02-14T12:13:54;102965.34;;;9.99;64.83
4972;BME280;2501;51.214;6.768;2023-02-14T12:16:29;102963.44;;;10.16;64.52
4972;BME280;2501;51.214;6.768;2023-02-14T12:19:01;102950.31;;;9.95;64.21
4972;BME280;2501;51.214;6.768;2023-02-14T12:21:45;102950.69;;;10.04;64.84
4972;BME280;2501;51.214;6.768;2023-02-14T12:24:22;102950.34;;;10.16;63.88
4972;BME280;2501;51.214;6.768;2023-02-14T12:27:02;102939.22;;;10.22;63.95
4972;BME280;2501;51.214;6.768;2023-02-14T12:29:35;102931.16;;;10.17;63.88
4972;BME280;2501;51.214;6.768;2023-02-14T12:32:15;102935.78;;;10.23;63.69
4972;BME280;2501;51.214;6.768;2023-02-14T12:34:45;102922.56;;;10.20;63.64
4972;BME280;2501;51.214;6.768;2023-02-14T12:37:20;102922.13;;;10.10;63.70
4972;BME280;2501;51.214;6.768;2023-02-14T12:40:09;102925.56;;;10.29;63.69
4972;BME280;2501;51.214;6.768;2023-02-14T12:42:59;102917.63;;;10.27;63.53
4972;BME280;2501;51.214;6.768;2023-02-14T12:45:46;102914.91;;;10.46;63.39
4972;BME280;2501;51.214;6.768;2023-02-14T12:48:26;102911.34;;;10.44;62.89
4972;BME280;2501;51.214;6.768;2023-02-14T12:50:59;102907.63;;;10.39;63.42
4972;BME280;2501;51.214;6.768;2023-02-14T12:53:50;102903.66;;;10.49;62.90
4972;BME280;2501;51.214;6.768;2023-02-14T12:56:30;102894.78;;;10.68;62.58
4972;BME280;2501;51.214;6.768;2023-02-14T12:59:12;102893.34;;;10.76;61.87
4972;BME280;2501;51.214;6.768;2023-02-14T13:02:01;102887.84;;;10.92;61.53
4972;BME280;2501;51.214;6.768;2023-02-14T13:04:52;102884.94;;;11.31;60.85
4972;BME280;2501;51.214;6.768;2023-02-14T13:07:40;102883.94;;;11.03;60.59
4972;BME280;2501;51.214;6.768;2023-02-14T13:10:21;102882.13;;;11.02;61.05
4972;BME280;2501;51.214;6.768;2023-02-14T13:13:00;102880.66;;;10.87;61.02
4972;BME280;2501;51.214;6.768;2023-02-14T13:15:38;102874.78;;;10.94;60.99
4972;BME280;2501;51.214;6.768;2023-02-14T13:18:12;102871.75;;;10.83;61.17
4972;BME280;2501;51.214;6.768;2023-02-14T13:20:49;102869.66;;;10.74;61.47
4972;BME280;2501;51.214;6.768;2023-02-14T13:23:24;102879.09;;;10.92;61.05
4972;BME280;2501;51.214;6.768;2023-02-14T13:25:57;102867.28;;;11.03;60.67
4972;BME280;2501;51.214;6.768;2023-02-14T13:28:28;102857.16;;;10.90;60.72
4972;BME280;2501;51.214;6.768;2023-02-14T13:31:00;102862.16;;;10.84;61.23
4972;BME280;2501;51.214;6.768;2023-02-14T13:33:32;102852.25;;;10.99;60.88
4972;BME280;2501;51.214;6.768;2023-02-14T13:36:06;102852.47;;;11.05;60.55
4972;BME280;2501;51.214;6.768;2023-02-14T13:38:39;102847.88;;;10.99;60.76
4972;BME280;2501;51.214;6.768;2023-02-14T13:41:09;102851.31;;;11.21;59.86
4972;BME280;2501;51.214;6.768;2023-02-14T13:43:50;102848.84;;;11.25;59.63
4972;BME280;2501;51.214;6.768;2023-02-14T13:46:44;102839.72;;;11.15;59.75
4972;BME280;2501;51.214;6.768;2023-02-14T13:49:29;102831.50;;;11.30;59.25
4972;BME280;2501;51.214;6.768;2023-02-14T13:52:00;102828.03;;;11.31;59.22
4972;BME280;2501;51.214;6.768;2023-02-14T13:54:33;102826.38;;;11.33;59.18
4972;BME280;2501;51.214;6.768;2023-02-14T13:57:24;102827.50;;;11.40;59.17
4972;BME280;2501;51.214;6.768;2023-02-14T14:03:11;102821.47;;;12.48;54.46
4972;BME280;2501;51.214;6.768;2023-02-14T14:06:02;102823.13;;;13.32;52.51
4972;BME280;2501;51.214;6.768;2023-02-14T14:08:40;102811.44;;;13.23;52.11